sensor_id;sensor_type;location;lat;lon;timestamp;temperature;humidity
44517;DHT22;30223;17.182;-96.766;2023-04-21T00:00:55;27.90;54.00
44517;DHT22;30223;17.182;-96.766;2023-04-21T00:03:22;27.90;54.00
44517;DHT22;30223;17.182;-96.766;2023-04-21T00:05:49;27.80;54.00
44517;DHT22;30223;17.182;-96.766;2023-04-21T00:08:17;27.80;54.10
44517;DHT22;30223;17.182;-96.766;2023-04-21T00:10:44;27.80;54.10
44517;DHT22;30223;17.182;-96.766;2023-04-21T00:13:12;27.80;54.10
44517;DHT22;30223;17.182;-96.766;2023-04-21T00:15:38;27.80;54.20
44517;DHT22;30223;17.182;-96.766;2023-04-21T00:18:05;27.80;54.10
44517;DHT22;30223;17.182;-96.766;2023-04-21T00:20:32;27.70;54.10
44517;DHT22;30223;17.182;-96.766;2023-04-21T00:22:59;27.70;54.10
44517;DHT22;30223;17.182;-96.766;2023-04-21T00:25:26;27.70;54.10
44517;DHT22;30223;17.182;-96.766;2023-04-21T00:27:53;27.70;54.10
44517;DHT22;30223;17.182;-96.766;2023-04-21T00:30:20;27.70;54.10
44517;DHT22;30223;17.182;-96.766;2023-04-21T00:32:47;27.70;54.10
44517;DHT22;30223;17.182;-96.766;2023-04-21T00:35:13;27.60;54.10
44517;DHT22;30223;17.182;-96.766;2023-04-21T00:37:40;27.60;54.10
44517;DHT22;30223;17.182;-96.766;2023-04-21T00:40:08;27.60;54.10
44517;DHT22;30223;17.182;-96.766;2023-04-21T00:42:35;27.60;54.10
44517;DHT22;30223;17.182;-96.766;2023-04-21T00:45:03;27.60;54.10
44517;DHT22;30223;17.182;-96.766;2023-04-21T00:47:30;27.60;54.10
44517;DHT22;30223;17.182;-96.766;2023-04-21T00:49:57;27.50;54.00
44517;DHT22;30223;17.182;-96.766;2023-04-21T00:52:27;27.50;54.00
44517;DHT22;30223;17.182;-96.766;2023-04-21T00:54:55;27.50;54.00
44517;DHT22;30223;17.182;-96.766;2023-04-21T00:57:22;27.50;54.10
44517;DHT22;30223;17.182;-96.766;2023-04-21T00:59:49;27.50;54.00
44517;DHT22;30223;17.182;-96.766;2023-04-21T01:02:17;27.50;54.10
44517;DHT22;30223;17.182;-96.766;2023-04-21T01:04:44;27.50;54.10
44517;DHT22;30223;17.182;-96.766;2023-04-21T01:07:11;27.50;54.10
44517;DHT22;30223;17.182;-96.766;2023-04-21T01:09:38;27.50;54.10
44517;DHT22;30223;17.182;-96.766;2023-04-21T01:12:08;27.40;54.00
44517;DHT22;30223;17.182;-96.766;2023-04-21T01:14:36;27.40;54.30
44517;DHT22;30223;17.182;-96.766;2023-04-21T01:17:03;27.40;54.10
44517;DHT22;30223;17.182;-96.766;2023-04-21T01:19:33;27.40;54.00
44517;DHT22;30223;17.182;-96.766;2023-04-21T01:22:01;27.40;54.10
44517;DHT22;30223;17.182;-96.766;2023-04-21T01:24:39;27.40;54.00
44517;DHT22;30223;17.182;-96.766;2023-04-21T01:27:12;27.40;54.00
44517;DHT22;30223;17.182;-96.766;2023-04-21T01:29:41;27.30;53.90
44517;DHT22;30223;17.182;-96.766;2023-04-21T01:32:14;27.30;54.00
44517;DHT22;30223;17.182;-96.766;2023-04-21T01:34:42;27.30;54.00
44517;DHT22;30223;17.182;-96.766;2023-04-21T01:37:11;27.30;54.00
44517;DHT22;30223;17.182;-96.766;2023-04-21T01:39:40;27.30;54.00
44517;DHT22;30223;17.182;-96.766;2023-04-21T01:42:07;27.30;54.50
44517;DHT22;30223;17.182;-96.766;2023-04-21T01:44:34;27.30;53.90
44517;DHT22;30223;17.182;-96.766;2023-04-21T01:47:01;27.30;53.90
44517;DHT22;30223;17.182;-96.766;2023-04-21T01:49:28;27.20;53.90
44517;DHT22;30223;17.182;-96.766;2023-04-21T01:51:55;27.20;53.90
44517;DHT22;30223;17.182;-96.766;2023-04-21T01:54:22;27.20;53.90
44517;DHT22;30223;17.182;-96.766;2023-04-21T01:56:49;27.20;53.90
44517;DHT22;30223;17.182;-96.766;2023-04-21T01:59:15;27.20;53.80
44517;DHT22;30223;17.182;-96.766;2023-04-21T02:01:45;27.20;53.80
44517;DHT22;30223;17.182;-96.766;2023-04-21T02:04:11;27.20;53.90
44517;DHT22;30223;17.182;-96.766;2023-04-21T02:06:38;27.10;53.80
44517;DHT22;30223;17.182;-96.766;2023-04-21T02:09:05;27.10;53.80
44517;DHT22;30223;17.182;-96.766;2023-04-21T02:11:32;27.10;53.80
44517;DHT22;30223;17.182;-96.766;2023-04-21T02:13:59;27.10;53.80
44517;DHT22;30223;17.182;-96.766;2023-04-21T02:16:26;27.10;53.70
44517;DHT22;30223;17.182;-96.766;2023-04-21T02:18:54;27.10;53.70
44517;DHT22;30223;17.182;-96.766;2023-04-21T02:21:22;27.10;53.70
44517;DHT22;30223;17.182;-96.766;2023-04-21T02:23:50;27.10;53.70
44517;DHT22;30223;17.182;-96.766;2023-04-21T02:26:17;27.10;53.70
44517;DHT22;30223;17.182;-96.766;2023-04-21T02:28:44;27.10;53.60
44517;DHT22;30223;17.182;-96.766;2023-04-21T02:31:11;27.00;53.60
44517;DHT22;30223;17.182;-96.766;2023-04-21T02:33:41;27.10;53.60
44517;DHT22;30223;17.182;-96.766;2023-04-21T02:36:07;27.10;53.60
44517;DHT22;30223;17.182;-96.766;2023-04-21T02:38:34;27.00;53.50
44517;DHT22;30223;17.182;-96.766;2023-04-21T02:41:01;27.00;53.50
44517;DHT22;30223;17.182;-96.766;2023-04-21T02:43:28;27.00;53.50
44517;DHT22;30223;17.182;-96.766;2023-04-21T02:45:55;27.00;53.50
44517;DHT22;30223;17.182;-96.766;2023-04-21T02:48:21;26.90;53.40
44517;DHT22;30223;17.182;-96.766;2023-04-21T02:50:49;27.00;53.50
44517;DHT22;30223;17.182;-96.766;2023-04-21T02:53:16;26.90;53.40
44517;DHT22;30223;17.182;-96.766;2023-04-21T02:55:42;26.90;53.40
44517;DHT22;30223;17.182;-96.766;2023-04-21T02:58:09;26.90;53.40
44517;DHT22;30223;17.182;-96.766;2023-04-21T03:00:36;26.90;53.40
44517;DHT22;30223;17.182;-96.766;2023-04-21T03:03:03;26.90;53.40
44517;DHT22;30223;17.182;-96.766;2023-04-21T03:05:30;26.90;53.40
44517;DHT22;30223;17.182;-96.766;2023-04-21T03:07:57;26.90;53.40
44517;DHT22;30223;17.182;-96.766;2023-04-21T03:10:23;26.90;53.40
44517;DHT22;30223;17.182;-96.766;2023-04-21T03:12:52;26.80;53.30
44517;DHT22;30223;17.182;-96.766;2023-04-21T03:15:21;26.80;53.30
44517;DHT22;30223;17.182;-96.766;2023-04-21T03:17:48;26.80;53.30
44517;DHT22;30223;17.182;-96.766;2023-04-21T03:20:14;26.80;53.30
44517;DHT22;30223;17.182;-96.766;2023-04-21T03:22:42;26.80;53.30
44517;DHT22;30223;17.182;-96.766;2023-04-21T03:25:08;26.80;53.30
44517;DHT22;30223;17.182;-96.766;2023-04-21T03:27:36;26.70;53.20
44517;DHT22;30223;17.182;-96.766;2023-04-21T03:30:04;26.80;53.30
44517;DHT22;30223;17.182;-96.766;2023-04-21T03:32:31;26.80;53.20
44517;DHT22;30223;17.182;-96.766;2023-04-21T03:34:58;26.70;53.20
44517;DHT22;30223;17.182;-96.766;2023-04-21T03:37:25;26.70;53.20
44517;DHT22;30223;17.182;-96.766;2023-04-21T03:39:52;26.70;53.20
44517;DHT22;30223;17.182;-96.766;2023-04-21T03:42:18;26.70;53.20
44517;DHT22;30223;17.182;-96.766;2023-04-21T03:44:45;26.70;53.10
44517;DHT22;30223;17.182;-96.766;2023-04-21T03:47:12;26.70;53.10
44517;DHT22;30223;17.182;-96.766;2023-04-21T03:49:39;26.70;53.20
44517;DHT22;30223;17.182;-96.766;2023-04-21T03:52:05;26.70;53.10
44517;DHT22;30223;17.182;-96.766;2023-04-21T03:54:32;26.70;53.10
44517;DHT22;30223;17.182;-96.766;2023-04-21T03:56:59;26.70;53.10
44517;DHT22;30223;17.182;-96.766;2023-04-21T03:59:26;26.70;53.10
44517;DHT22;30223;17.182;-96.766;2023-04-21T04:01:52;26.70;53.10
44517;DHT22;30223;17.182;-96.766;2023-04-21T04:04:19;26.60;53.10
44517;DHT22;30223;17.182;-96.766;2023-04-21T04:06:46;26.60;53.00
44517;DHT22;30223;17.182;-96.766;2023-04-21T04:09:13;26.60;53.00
44517;DHT22;30223;17.182;-96.766;2023-04-21T04:11:39;26.60;53.00
44517;DHT22;30223;17.182;-96.766;2023-04-21T04:14:06;26.60;52.90
44517;DHT22;30223;17.182;-96.766;2023-04-21T04:16:34;26.60;52.90
44517;DHT22;30223;17.182;-96.766;2023-04-21T04:19:00;26.60;52.90
44517;DHT22;30223;17.182;-96.766;2023-04-21T04:21:27;26.60;52.90
44517;DHT22;30223;17.182;-96.766;2023-04-21T04:23:55;26.50;53.50
44517;DHT22;30223;17.182;-96.766;2023-04-21T04:26:21;26.50;52.80
44517;DHT22;30223;17.182;-96.766;2023-04-21T04:28:50;26.50;52.80
44517;DHT22;30223;17.182;-96.766;2023-04-21T04:31:18;26.50;52.90
44517;DHT22;30223;17.182;-96.766;2023-04-21T04:33:45;26.50;52.80
44517;DHT22;30223;17.182;-96.766;2023-04-21T04:36:12;26.50;52.90
44517;DHT22;30223;17.182;-96.766;2023-04-21T04:38:39;26.50;52.80
44517;DHT22;30223;17.182;-96.766;2023-04-21T04:41:06;26.50;52.80
44517;DHT22;30223;17.182;-96.766;2023-04-21T04:43:34;26.50;52.80
44517;DHT22;30223;17.182;-96.766;2023-04-21T04:46:08;26.50;52.80
44517;DHT22;30223;17.182;-96.766;2023-04-21T04:48:36;26.40;52.80
44517;DHT22;30223;17.182;-96.766;2023-04-21T04:51:03;26.40;52.70
44517;DHT22;30223;17.182;-96.766;2023-04-21T04:53:30;26.40;52.80
44517;DHT22;30223;17.182;-96.766;2023-04-21T04:55:58;26.40;52.70
44517;DHT22;30223;17.182;-96.766;2023-04-21T04:58:25;26.40;52.70
44517;DHT22;30223;17.182;-96.766;2023-04-21T05:00:51;26.40;52.70
44517;DHT22;30223;17.182;-96.766;2023-04-21T05:03:18;26.40;52.70
44517;DHT22;30223;17.182;-96.766;2023-04-21T05:05:45;26.40;52.70
44517;DHT22;30223;17.182;-96.766;2023-04-21T05:08:12;26.40;52.70
44517;DHT22;30223;17.182;-96.766;2023-04-21T05:10:38;26.40;52.70
44517;DHT22;30223;17.182;-96.766;2023-04-21T05:13:05;26.30;52.60
44517;DHT22;30223;17.182;-96.766;2023-04-21T05:15:32;26.30;52.60
44517;DHT22;30223;17.182;-96.766;2023-04-21T05:17:59;26.30;52.60
44517;DHT22;30223;17.182;-96.766;2023-04-21T05:20:25;26.30;52.60
44517;DHT22;30223;17.182;-96.766;2023-04-21T05:22:52;26.30;52.60
44517;DHT22;30223;17.182;-96.766;2023-04-21T05:25:21;26.30;52.60
44517;DHT22;30223;17.182;-96.766;2023-04-21T05:27:48;26.30;52.60
44517;DHT22;30223;17.182;-96.766;2023-04-21T05:30:15;26.30;52.70
44517;DHT22;30223;17.182;-96.766;2023-04-21T05:32:41;26.30;52.70
44517;DHT22;30223;17.182;-96.766;2023-04-21T05:35:08;26.20;52.60
44517;DHT22;30223;17.182;-96.766;2023-04-21T05:37:35;26.30;52.70
44517;DHT22;30223;17.182;-96.766;2023-04-21T05:40:02;26.20;52.60
44517;DHT22;30223;17.182;-96.766;2023-04-21T05:42:29;26.20;52.60
44517;DHT22;30223;17.182;-96.766;2023-04-21T05:44:56;26.20;52.60
44517;DHT22;30223;17.182;-96.766;2023-04-21T05:47:23;26.20;52.60
44517;DHT22;30223;17.182;-96.766;2023-04-21T05:49:58;26.20;52.60
44517;DHT22;30223;17.182;-96.766;2023-04-21T05:52:25;26.20;52.60
44517;DHT22;30223;17.182;-96.766;2023-04-21T05:54:51;26.10;52.50
44517;DHT22;30223;17.182;-96.766;2023-04-21T05:57:18;26.10;52.50
44517;DHT22;30223;17.182;-96.766;2023-04-21T05:59:45;26.20;52.60
44517;DHT22;30223;17.182;-96.766;2023-04-21T06:02:12;26.10;52.50
44517;DHT22;30223;17.182;-96.766;2023-04-21T06:04:38;26.10;52.50
44517;DHT22;30223;17.182;-96.766;2023-04-21T06:07:06;26.10;52.50
44517;DHT22;30223;17.182;-96.766;2023-04-21T06:09:33;26.10;52.50
44517;DHT22;30223;17.182;-96.766;2023-04-21T06:12:02;26.10;52.50
44517;DHT22;30223;17.182;-96.766;2023-04-21T06:14:29;26.10;52.50
44517;DHT22;30223;17.182;-96.766;2023-04-21T06:16:55;26.10;52.50
44517;DHT22;30223;17.182;-96.766;2023-04-21T06:19:22;26.00;52.40
44517;DHT22;30223;17.182;-96.766;2023-04-21T06:21:52;26.00;52.40
44517;DHT22;30223;17.182;-96.766;2023-04-21T06:24:21;26.00;52.50
44517;DHT22;30223;17.182;-96.766;2023-04-21T06:26:51;26.00;52.40
44517;DHT22;30223;17.182;-96.766;2023-04-21T06:29:18;26.00;52.40
44517;DHT22;30223;17.182;-96.766;2023-04-21T06:31:45;26.00;52.40
44517;DHT22;30223;17.182;-96.766;2023-04-21T06:34:12;25.90;52.40
44517;DHT22;30223;17.182;-96.766;2023-04-21T06:36:39;26.00;53.10
44517;DHT22;30223;17.182;-96.766;2023-04-21T06:39:06;25.90;52.40
44517;DHT22;30223;17.182;-96.766;2023-04-21T06:41:33;25.90;52.40
44517;DHT22;30223;17.182;-96.766;2023-04-21T06:44:00;25.90;52.40
44517;DHT22;30223;17.182;-96.766;2023-04-21T06:46:26;25.90;52.40
44517;DHT22;30223;17.182;-96.766;2023-04-21T06:48:53;25.90;52.40
44517;DHT22;30223;17.182;-96.766;2023-04-21T06:51:20;25.90;52.40
44517;DHT22;30223;17.182;-96.766;2023-04-21T06:53:49;25.90;52.40
44517;DHT22;30223;17.182;-96.766;2023-04-21T06:56:15;25.90;52.40
44517;DHT22;30223;17.182;-96.766;2023-04-21T06:58:42;25.90;52.40
44517;DHT22;30223;17.182;-96.766;2023-04-21T07:01:09;25.90;52.40
44517;DHT22;30223;17.182;-96.766;2023-04-21T07:03:35;25.90;52.40
44517;DHT22;30223;17.182;-96.766;2023-04-21T07:06:02;25.80;52.30
44517;DHT22;30223;17.182;-96.766;2023-04-21T07:08:28;25.80;52.30
44517;DHT22;30223;17.182;-96.766;2023-04-21T07:10:55;25.80;52.30
44517;DHT22;30223;17.182;-96.766;2023-04-21T07:13:22;25.80;52.30
44517;DHT22;30223;17.182;-96.766;2023-04-21T07:15:49;25.80;52.30
44517;DHT22;30223;17.182;-96.766;2023-04-21T07:18:15;25.80;52.30
44517;DHT22;30223;17.182;-96.766;2023-04-21T07:20:42;25.80;52.30
44517;DHT22;30223;17.182;-96.766;2023-04-21T07:23:09;25.80;52.30
44517;DHT22;30223;17.182;-96.766;2023-04-21T07:25:35;25.70;52.30
44517;DHT22;30223;17.182;-96.766;2023-04-21T07:28:02;25.70;52.30
44517;DHT22;30223;17.182;-96.766;2023-04-21T07:30:29;25.70;52.30
44517;DHT22;30223;17.182;-96.766;2023-04-21T07:32:56;25.70;52.30
44517;DHT22;30223;17.182;-96.766;2023-04-21T07:35:24;25.70;52.30
44517;DHT22;30223;17.182;-96.766;2023-04-21T07:37:51;25.70;52.30
44517;DHT22;30223;17.182;-96.766;2023-04-21T07:40:17;25.70;52.30
44517;DHT22;30223;17.182;-96.766;2023-04-21T07:42:44;25.70;52.30
44517;DHT22;30223;17.182;-96.766;2023-04-21T07:45:11;25.60;52.20
44517;DHT22;30223;17.182;-96.766;2023-04-21T07:47:38;25.70;52.30
44517;DHT22;30223;17.182;-96.766;2023-04-21T07:50:05;25.60;52.20
44517;DHT22;30223;17.182;-96.766;2023-04-21T07:52:32;25.60;52.20
44517;DHT22;30223;17.182;-96.766;2023-04-21T07:54:59;25.60;52.20
44517;DHT22;30223;17.182;-96.766;2023-04-21T07:57:25;25.60;52.20
44517;DHT22;30223;17.182;-96.766;2023-04-21T07:59:52;25.60;52.20
44517;DHT22;30223;17.182;-96.766;2023-04-21T08:02:19;25.60;52.20
44517;DHT22;30223;17.182;-96.766;2023-04-21T08:04:46;25.60;52.20
44517;DHT22;30223;17.182;-96.766;2023-04-21T08:07:12;25.50;52.10
44517;DHT22;30223;17.182;-96.766;2023-04-21T08:09:40;25.50;52.10
44517;DHT22;30223;17.182;-96.766;2023-04-21T08:12:07;25.50;52.10
44517;DHT22;30223;17.182;-96.766;2023-04-21T08:14:33;25.50;52.10
44517;DHT22;30223;17.182;-96.766;2023-04-21T08:17:00;25.50;52.10
44517;DHT22;30223;17.182;-96.766;2023-04-21T08:19:27;25.50;52.10
44517;DHT22;30223;17.182;-96.766;2023-04-21T08:21:54;25.50;52.10
44517;DHT22;30223;17.182;-96.766;2023-04-21T08:24:22;25.50;52.20
44517;DHT22;30223;17.182;-96.766;2023-04-21T08:26:49;25.50;52.10
44517;DHT22;30223;17.182;-96.766;2023-04-21T08:29:18;25.40;52.10
44517;DHT22;30223;17.182;-96.766;2023-04-21T08:31:45;25.40;52.00
44517;DHT22;30223;17.182;-96.766;2023-04-21T08:34:12;25.40;52.00
44517;DHT22;30223;17.182;-96.766;2023-04-21T08:36:38;25.40;52.00
44517;DHT22;30223;17.182;-96.766;2023-04-21T08:39:07;25.40;52.10
44517;DHT22;30223;17.182;-96.766;2023-04-21T08:41:34;25.40;52.10
44517;DHT22;30223;17.182;-96.766;2023-04-21T08:44:02;25.30;52.00
44517;DHT22;30223;17.182;-96.766;2023-04-21T08:46:32;25.30;52.00
44517;DHT22;30223;17.182;-96.766;2023-04-21T08:48:58;25.30;52.00
44517;DHT22;30223;17.182;-96.766;2023-04-21T08:51:27;25.30;52.00
44517;DHT22;30223;17.182;-96.766;2023-04-21T08:53:55;25.40;52.00
44517;DHT22;30223;17.182;-96.766;2023-04-21T08:56:25;25.30;52.00
44517;DHT22;30223;17.182;-96.766;2023-04-21T08:58:52;25.30;52.00
44517;DHT22;30223;17.182;-96.766;2023-04-21T09:01:19;25.30;51.90
44517;DHT22;30223;17.182;-96.766;2023-04-21T09:03:46;25.30;52.00
44517;DHT22;30223;17.182;-96.766;2023-04-21T09:06:12;25.30;52.00
44517;DHT22;30223;17.182;-96.766;2023-04-21T09:08:42;25.30;51.90
44517;DHT22;30223;17.182;-96.766;2023-04-21T09:11:13;25.30;52.00
44517;DHT22;30223;17.182;-96.766;2023-04-21T09:13:42;25.30;52.00
44517;DHT22;30223;17.182;-96.766;2023-04-21T09:16:17;25.20;51.90
44517;DHT22;30223;17.182;-96.766;2023-04-21T09:18:47;25.20;51.90
44517;DHT22;30223;17.182;-96.766;2023-04-21T09:21:16;25.20;51.80
44517;DHT22;30223;17.182;-96.766;2023-04-21T09:23:49;25.20;51.90
44517;DHT22;30223;17.182;-96.766;2023-04-21T09:26:18;25.20;51.90
44517;DHT22;30223;17.182;-96.766;2023-04-21T09:28:49;25.10;52.40
44517;DHT22;30223;17.182;-96.766;2023-04-21T09:31:18;25.20;52.30
44517;DHT22;30223;17.182;-96.766;2023-04-21T09:33:50;25.10;51.80
44517;DHT22;30223;17.182;-96.766;2023-04-21T09:36:22;25.10;51.80
44517;DHT22;30223;17.182;-96.766;2023-04-21T09:38:56;25.10;51.80
44517;DHT22;30223;17.182;-96.766;2023-04-21T09:41:23;25.10;51.80
44517;DHT22;30223;17.182;-96.766;2023-04-21T09:43:50;25.10;51.80
44517;DHT22;30223;17.182;-96.766;2023-04-21T09:46:18;25.10;51.80
44517;DHT22;30223;17.182;-96.766;2023-04-21T09:48:47;25.10;51.80
44517;DHT22;30223;17.182;-96.766;2023-04-21T09:51:15;25.10;51.80
44517;DHT22;30223;17.182;-96.766;2023-04-21T09:53:44;25.10;51.80
44517;DHT22;30223;17.182;-96.766;2023-04-21T09:56:12;25.10;51.80
44517;DHT22;30223;17.182;-96.766;2023-04-21T09:58:46;25.00;51.70
44517;DHT22;30223;17.182;-96.766;2023-04-21T10:01:14;25.00;51.80
44517;DHT22;30223;17.182;-96.766;2023-04-21T10:03:43;25.00;51.80
44517;DHT22;30223;17.182;-96.766;2023-04-21T10:06:11;25.00;52.40
44517;DHT22;30223;17.182;-96.766;2023-04-21T10:08:38;25.00;51.70
44517;DHT22;30223;17.182;-96.766;2023-04-21T10:11:06;25.00;51.70
44517;DHT22;30223;17.182;-96.766;2023-04-21T10:13:34;25.00;51.80
44517;DHT22;30223;17.182;-96.766;2023-04-21T10:16:06;25.00;51.70
44517;DHT22;30223;17.182;-96.766;2023-04-21T10:18:37;25.00;51.70
44517;DHT22;30223;17.182;-96.766;2023-04-21T10:21:07;24.90;51.70
44517;DHT22;30223;17.182;-96.766;2023-04-21T10:26:24;24.90;51.60
44517;DHT22;30223;17.182;-96.766;2023-04-21T10:28:59;24.90;51.70
44517;DHT22;30223;17.182;-96.766;2023-04-21T10:31:33;24.90;51.60
44517;DHT22;30223;17.182;-96.766;2023-04-21T10:36:47;24.80;51.60
44517;DHT22;30223;17.182;-96.766;2023-04-21T10:39:27;24.80;51.70
44517;DHT22;30223;17.182;-96.766;2023-04-21T10:41:55;24.80;51.70
44517;DHT22;30223;17.182;-96.766;2023-04-21T10:44:28;24.80;51.70
44517;DHT22;30223;17.182;-96.766;2023-04-21T10:46:56;24.80;51.70
44517;DHT22;30223;17.182;-96.766;2023-04-21T10:49:27;24.70;51.70
44517;DHT22;30223;17.182;-96.766;2023-04-21T10:57:05;24.70;51.70
44517;DHT22;30223;17.182;-96.766;2023-04-21T10:59:36;24.60;51.60
44517;DHT22;30223;17.182;-96.766;2023-04-21T11:02:09;24.70;51.70
44517;DHT22;30223;17.182;-96.766;2023-04-21T11:04:36;24.60;51.70
44517;DHT22;30223;17.182;-96.766;2023-04-21T11:07:11;24.60;51.70
44517;DHT22;30223;17.182;-96.766;2023-04-21T11:09:42;24.60;51.70
44517;DHT22;30223;17.182;-96.766;2023-04-21T11:12:13;24.60;51.70
44517;DHT22;30223;17.182;-96.766;2023-04-21T11:14:42;24.60;51.70
44517;DHT22;30223;17.182;-96.766;2023-04-21T11:17:13;24.60;51.70
44517;DHT22;30223;17.182;-96.766;2023-04-21T11:19:40;24.50;51.60
44517;DHT22;30223;17.182;-96.766;2023-04-21T11:22:07;24.50;51.70
44517;DHT22;30223;17.182;-96.766;2023-04-21T11:24:34;24.50;51.70
44517;DHT22;30223;17.182;-96.766;2023-04-21T11:27:01;24.50;51.70
44517;DHT22;30223;17.182;-96.766;2023-04-21T11:29:28;24.50;51.70
44517;DHT22;30223;17.182;-96.766;2023-04-21T11:31:55;24.50;51.60
44517;DHT22;30223;17.182;-96.766;2023-04-21T11:34:25;24.50;51.70
44517;DHT22;30223;17.182;-96.766;2023-04-21T11:36:52;24.50;51.80
44517;DHT22;30223;17.182;-96.766;2023-04-21T11:39:20;24.50;51.70
44517;DHT22;30223;17.182;-96.766;2023-04-21T11:41:49;24.50;51.70
44517;DHT22;30223;17.182;-96.766;2023-04-21T11:44:35;24.40;51.60
44517;DHT22;30223;17.182;-96.766;2023-04-21T11:47:21;24.40;51.60
44517;DHT22;30223;17.182;-96.766;2023-04-21T11:50:00;24.40;51.60
44517;DHT22;30223;17.182;-96.766;2023-04-21T11:52:34;24.40;51.70
44517;DHT22;30223;17.182;-96.766;2023-04-21T11:55:14;24.40;51.60
44517;DHT22;30223;17.182;-96.766;2023-04-21T11:57:43;24.30;51.60
44517;DHT22;30223;17.182;-96.766;2023-04-21T12:00:11;24.40;51.70
44517;DHT22;30223;17.182;-96.766;2023-04-21T12:02:42;24.30;51.60
44517;DHT22;30223;17.182;-96.766;2023-04-21T12:05:13;24.30;51.60
44517;DHT22;30223;17.182;-96.766;2023-04-21T12:07:45;24.30;51.60
44517;DHT22;30223;17.182;-96.766;2023-04-21T12:10:16;24.30;51.60
44517;DHT22;30223;17.182;-96.766;2023-04-21T12:12:43;24.30;51.70
44517;DHT22;30223;17.182;-96.766;2023-04-21T12:15:16;24.30;51.60
44517;DHT22;30223;17.182;-96.766;2023-04-21T12:17:49;24.20;51.60
44517;DHT22;30223;17.182;-96.766;2023-04-21T12:20:21;24.20;51.60
44517;DHT22;30223;17.182;-96.766;2023-04-21T12:22:48;24.20;51.60
44517;DHT22;30223;17.182;-96.766;2023-04-21T12:25:16;24.20;51.60
44517;DHT22;30223;17.182;-96.766;2023-04-21T12:27:56;24.20;51.60
44517;DHT22;30223;17.182;-96.766;2023-04-21T12:30:23;24.20;52.20
44517;DHT22;30223;17.182;-96.766;2023-04-21T12:32:49;24.20;51.60
44517;DHT22;30223;17.182;-96.766;2023-04-21T12:35:17;24.20;51.60
44517;DHT22;30223;17.182;-96.766;2023-04-21T12:37:44;24.10;51.50
44517;DHT22;30223;17.182;-96.766;2023-04-21T12:40:11;24.20;51.60
44517;DHT22;30223;17.182;-96.766;2023-04-21T12:42:37;24.10;51.60
44517;DHT22;30223;17.182;-96.766;2023-04-21T12:45:05;24.10;51.50
44517;DHT22;30223;17.182;-96.766;2023-04-21T12:47:32;24.10;51.50
44517;DHT22;30223;17.182;-96.766;2023-04-21T12:49:58;24.10;51.50
44517;DHT22;30223;17.182;-96.766;2023-04-21T12:52:25;24.10;51.60
44517;DHT22;30223;17.182;-96.766;2023-04-21T12:54:52;24.10;51.50
44517;DHT22;30223;17.182;-96.766;2023-04-21T12:57:20;24.10;51.50
44517;DHT22;30223;17.182;-96.766;2023-04-21T12:59:47;24.10;51.50
44517;DHT22;30223;17.182;-96.766;2023-04-21T13:02:14;24.00;51.50
44517;DHT22;30223;17.182;-96.766;2023-04-21T13:04:41;24.10;51.50
44517;DHT22;30223;17.182;-96.766;2023-04-21T13:07:08;24.00;51.50
44517;DHT22;30223;17.182;-96.766;2023-04-21T13:09:35;24.10;51.50
44517;DHT22;30223;17.182;-96.766;2023-04-21T13:12:04;24.00;51.40
44517;DHT22;30223;17.182;-96.766;2023-04-21T13:14:30;24.00;51.40
44517;DHT22;30223;17.182;-96.766;2023-04-21T13:16:57;24.00;51.40
44517;DHT22;30223;17.182;-96.766;2023-04-21T13:19:24;24.00;51.40
44517;DHT22;30223;17.182;-96.766;2023-04-21T13:21:51;24.00;51.40
44517;DHT22;30223;17.182;-96.766;2023-04-21T13:24:18;24.00;51.40
44517;DHT22;30223;17.182;-96.766;2023-04-21T13:26:45;24.00;51.40
44517;DHT22;30223;17.182;-96.766;2023-04-21T13:29:11;24.00;51.40
44517;DHT22;30223;17.182;-96.766;2023-04-21T13:31:38;24.00;51.40
44517;DHT22;30223;17.182;-96.766;2023-04-21T13:34:05;24.00;51.40
44517;DHT22;30223;17.182;-96.766;2023-04-21T13:36:32;24.00;51.40
44517;DHT22;30223;17.182;-96.766;2023-04-21T13:38:59;23.90;51.40
44517;DHT22;30223;17.182;-96.766;2023-04-21T13:41:27;23.90;51.40
44517;DHT22;30223;17.182;-96.766;2023-04-21T13:43:53;23.90;51.40
44517;DHT22;30223;17.182;-96.766;2023-04-21T13:46:20;23.90;51.40
44517;DHT22;30223;17.182;-96.766;2023-04-21T13:48:47;23.90;51.40
44517;DHT22;30223;17.182;-96.766;2023-04-21T13:51:17;23.90;51.40
44517;DHT22;30223;17.182;-96.766;2023-04-21T13:53:44;23.90;51.30
44517;DHT22;30223;17.182;-96.766;2023-04-21T13:56:11;23.90;51.40
44517;DHT22;30223;17.182;-96.766;2023-04-21T13:58:39;23.90;51.40
44517;DHT22;30223;17.182;-96.766;2023-04-21T14:01:06;23.90;51.40
44517;DHT22;30223;17.182;-96.766;2023-04-21T14:03:33;23.90;51.40
44517;DHT22;30223;17.182;-96.766;2023-04-21T14:05:59;23.90;51.40
44517;DHT22;30223;17.182;-96.766;2023-04-21T14:08:26;23.90;51.40
44517;DHT22;30223;17.182;-96.766;2023-04-21T14:10:53;23.90;51.40
44517;DHT22;30223;17.182;-96.766;2023-04-21T14:13:20;23.80;51.40
44517;DHT22;30223;17.182;-96.766;2023-04-21T14:15:47;23.80;51.40
44517;DHT22;30223;17.182;-96.766;2023-04-21T14:18:13;23.90;51.50
44517;DHT22;30223;17.182;-96.766;2023-04-21T14:20:40;23.80;51.40
44517;DHT22;30223;17.182;-96.766;2023-04-21T14:23:07;23.80;51.40
44517;DHT22;30223;17.182;-96.766;2023-04-21T14:25:34;23.80;51.40
44517;DHT22;30223;17.182;-96.766;2023-04-21T14:28:00;23.80;51.40
44517;DHT22;30223;17.182;-96.766;2023-04-21T14:30:33;23.80;51.40
44517;DHT22;30223;17.182;-96.766;2023-04-21T14:33:02;23.80;51.40
44517;DHT22;30223;17.182;-96.766;2023-04-21T14:35:29;23.80;51.40
44517;DHT22;30223;17.182;-96.766;2023-04-21T14:37:58;23.80;51.50
44517;DHT22;30223;17.182;-96.766;2023-04-21T14:40:25;23.80;51.40
44517;DHT22;30223;17.182;-96.766;2023-04-21T14:42:52;23.80;51.40
44517;DHT22;30223;17.182;-96.766;2023-04-21T14:45:19;23.80;51.40
44517;DHT22;30223;17.182;-96.766;2023-04-21T14:47:46;23.80;51.40
44517;DHT22;30223;17.182;-96.766;2023-04-21T14:50:13;23.80;51.40
44517;DHT22;30223;17.182;-96.766;2023-04-21T14:52:40;23.80;51.40
44517;DHT22;30223;17.182;-96.766;2023-04-21T14:55:07;23.80;51.40
44517;DHT22;30223;17.182;-96.766;2023-04-21T14:57:34;23.90;51.40
44517;DHT22;30223;17.182;-96.766;2023-04-21T15:00:01;23.90;51.40
44517;DHT22;30223;17.182;-96.766;2023-04-21T15:02:27;23.90;51.40
44517;DHT22;30223;17.182;-96.766;2023-04-21T15:04:55;23.90;51.30
44517;DHT22;30223;17.182;-96.766;2023-04-21T15:07:22;23.90;51.40
44517;DHT22;30223;17.182;-96.766;2023-04-21T15:09:52;23.90;51.30
44517;DHT22;30223;17.182;-96.766;2023-04-21T15:12:20;23.90;51.40
44517;DHT22;30223;17.182;-96.766;2023-04-21T15:14:47;23.90;51.30
44517;DHT22;30223;17.182;-96.766;2023-04-21T15:17:14;23.90;51.30